createdAt,value
2023-07-20T00:00:54.839Z,17.60
2023-07-20T00:03:26.518Z,17.60
2023-07-20T00:05:54.025Z,17.70
2023-07-20T00:08:21.163Z,17.60
2023-07-20T00:10:48.367Z,17.60
2023-07-20T00:13:17.069Z,17.50
2023-07-20T00:15:44.385Z,17.50
2023-07-20T00:18:11.591Z,17.50
2023-07-20T00:20:38.797Z,17.50
2023-07-20T00:23:06.122Z,17.50
2023-07-20T00:25:34.481Z,17.50
2023-07-20T00:28:01.598Z,17.50
2023-07-20T00:30:28.683Z,17.50
2023-07-20T00:32:55.927Z,17.40
2023-07-20T00:35:22.907Z,17.40
2023-07-20T00:37:49.953Z,17.40
2023-07-20T00:40:19.185Z,17.40
2023-07-20T00:42:46.274Z,17.40
2023-07-20T00:45:13.422Z,17.40
2023-07-20T00:47:40.856Z,17.40
2023-07-20T00:50:08.756Z,17.40
2023-07-20T00:52:36.830Z,17.40
2023-07-20T00:55:04.239Z,17.30
2023-07-20T00:57:31.944Z,17.30
2023-07-20T00:59:59.112Z,17.30
2023-07-20T01:02:28.082Z,17.30
2023-07-20T01:04:55.357Z,17.30
2023-07-20T01:08:03.658Z,17.30
2023-07-20T01:10:42.269Z,17.30
2023-07-20T01:13:12.098Z,17.30
2023-07-20T01:15:40.684Z,17.20
2023-07-20T01:18:07.874Z,17.20
2023-07-20T01:20:35.913Z,17.20
2023-07-20T01:23:15.753Z,17.20
2023-07-20T01:26:07.681Z,17.30
2023-07-20T01:28:53.251Z,17.20
2023-07-20T01:31:30.812Z,17.20
2023-07-20T01:34:01.445Z,17.10
2023-07-20T01:36:31.968Z,17.10
2023-07-20T01:38:59.018Z,17.00
2023-07-20T01:41:26.223Z,17.00
2023-07-20T01:43:53.297Z,17.00
2023-07-20T01:46:20.464Z,17.00
2023-07-20T01:48:47.821Z,17.00
2023-07-20T01:51:15.373Z,17.00
2023-07-20T01:53:42.515Z,16.90
2023-07-20T01:56:09.482Z,16.90
2023-07-20T01:58:36.565Z,16.90
2023-07-20T02:01:04.226Z,16.80
2023-07-20T02:03:31.438Z,16.80
2023-07-20T02:05:58.545Z,16.80
2023-07-20T02:08:26.419Z,16.70
2023-07-20T02:10:53.646Z,16.80
2023-07-20T02:13:20.882Z,16.70
2023-07-20T02:15:50.784Z,16.80
2023-07-20T02:18:18.184Z,16.90
2023-07-20T02:20:46.039Z,16.90
2023-07-20T02:23:13.325Z,17.00
2023-07-20T02:25:40.754Z,17.00
2023-07-20T02:28:10.345Z,17.00
2023-07-20T02:30:40.558Z,16.90
2023-07-20T02:33:09.018Z,16.90
2023-07-20T02:35:36.252Z,16.90
2023-07-20T02:38:04.484Z,16.90
2023-07-20T02:40:31.580Z,17.00
2023-07-20T02:42:58.807Z,17.10
2023-07-20T02:45:25.981Z,17.10
2023-07-20T02:47:53.084Z,17.00
2023-07-20T02:50:20.262Z,17.00
2023-07-20T02:52:47.332Z,17.00
2023-07-20T02:55:14.514Z,16.90
2023-07-20T02:57:41.663Z,16.90
2023-07-20T03:00:09.317Z,16.90
2023-07-20T03:02:36.562Z,16.80
2023-07-20T03:05:07.102Z,16.80
2023-07-20T03:07:34.219Z,16.90
2023-07-20T03:10:01.661Z,16.80
2023-07-20T03:12:28.956Z,16.80
2023-07-20T03:14:58.199Z,16.80
2023-07-20T03:17:25.294Z,16.80
2023-07-20T03:19:52.601Z,16.80
2023-07-20T03:22:20.276Z,16.90
2023-07-20T03:24:47.529Z,16.90
2023-07-20T03:27:14.754Z,16.90
2023-07-20T03:29:41.834Z,16.90
2023-07-20T03:32:09.457Z,16.90
2023-07-20T03:34:36.550Z,16.80
2023-07-20T03:37:06.173Z,16.80
2023-07-20T03:39:33.468Z,16.90
2023-07-20T03:42:00.596Z,16.90
2023-07-20T03:44:28.364Z,17.00
2023-07-20T03:46:55.637Z,17.00
2023-07-20T03:49:22.810Z,17.10
2023-07-20T03:51:50.124Z,17.30
2023-07-20T03:54:17.273Z,17.50
2023-07-20T03:56:44.381Z,17.50
2023-07-20T03:59:11.634Z,17.40
2023-07-20T04:01:41.446Z,17.40
2023-07-20T04:04:09.707Z,17.30
2023-07-20T04:06:36.944Z,17.30
2023-07-20T04:09:06.056Z,17.30
2023-07-20T04:11:33.149Z,17.20
2023-07-20T04:14:00.256Z,17.10
2023-07-20T04:16:28.468Z,17.00
2023-07-20T04:18:58.755Z,16.90
2023-07-20T04:21:29.548Z,17.10
2023-07-20T04:23:56.553Z,17.20
2023-07-20T04:26:23.823Z,17.20
2023-07-20T04:28:52.044Z,17.30
2023-07-20T04:31:19.208Z,17.30
2023-07-20T04:33:46.452Z,17.30
2023-07-20T04:36:15.913Z,17.40
2023-07-20T04:38:43.754Z,17.60
2023-07-20T04:41:10.879Z,17.70
2023-07-20T04:43:37.897Z,17.70
2023-07-20T04:46:06.075Z,17.70
2023-07-20T04:48:33.216Z,17.60
2023-07-20T04:51:00.733Z,17.70
2023-07-20T04:53:27.914Z,17.60
2023-07-20T04:55:55.664Z,17.60
2023-07-20T04:58:23.634Z,17.50
2023-07-20T05:00:51.353Z,17.40
2023-07-20T05:03:19.211Z,17.40
2023-07-20T05:05:49.567Z,17.60
2023-07-20T05:08:18.045Z,17.70
2023-07-20T05:10:45.549Z,17.40
2023-07-20T05:13:12.872Z,17.20
2023-07-20T05:15:40.351Z,17.30
2023-07-20T05:18:07.449Z,17.50
2023-07-20T05:20:36.466Z,17.90
2023-07-20T05:23:03.664Z,18.20
2023-07-20T05:25:31.683Z,18.20
2023-07-20T05:27:59.072Z,18.20
2023-07-20T05:30:27.348Z,18.30
2023-07-20T05:32:55.897Z,18.20
2023-07-20T05:35:23.758Z,18.20
2023-07-20T05:37:51.159Z,18.30
2023-07-20T05:40:20.425Z,18.60
2023-07-20T05:42:49.284Z,18.80
2023-07-20T05:45:16.576Z,19.10
2023-07-20T05:47:44.207Z,18.70
2023-07-20T05:50:12.150Z,19.10
2023-07-20T05:52:40.348Z,19.00
2023-07-20T05:55:08.368Z,18.90
2023-07-20T05:57:36.706Z,18.90
2023-07-20T06:00:05.036Z,19.10
2023-07-20T06:02:34.322Z,19.50
2023-07-20T06:05:01.651Z,18.90
2023-07-20T06:07:28.851Z,18.80
2023-07-20T06:09:56.000Z,19.20
2023-07-20T06:12:23.063Z,19.10
2023-07-20T06:14:50.033Z,19.50
2023-07-20T06:17:19.621Z,19.40
2023-07-20T06:19:47.170Z,19.70
2023-07-20T06:22:14.334Z,19.90
2023-07-20T06:24:41.441Z,19.40
2023-07-20T06:27:08.496Z,19.40
2023-07-20T06:29:35.744Z,19.30
2023-07-20T06:32:02.957Z,19.30
2023-07-20T06:34:31.111Z,19.30
2023-07-20T06:36:58.396Z,19.00
2023-07-20T06:41:55.929Z,19.10
2023-07-20T06:44:24.186Z,18.60
2023-07-20T06:46:51.372Z,18.70
2023-07-20T06:49:28.863Z,19.10
2023-07-20T06:51:56.221Z,18.90
2023-07-20T06:54:24.085Z,19.00
2023-07-20T06:59:22.799Z,19.40
2023-07-20T07:01:50.057Z,19.20
2023-07-20T07:04:17.577Z,19.60
2023-07-20T07:06:45.657Z,19.40
2023-07-20T07:09:12.859Z,19.60
2023-07-20T07:11:39.962Z,19.40
2023-07-20T07:14:08.756Z,19.50
2023-07-20T07:16:39.346Z,19.80
2023-07-20T07:19:09.817Z,19.90
2023-07-20T07:21:36.924Z,19.90
2023-07-20T07:24:04.953Z,20.00
2023-07-20T07:26:32.206Z,20.00
2023-07-20T07:28:59.557Z,19.60
2023-07-20T07:31:27.233Z,19.30
2023-07-20T07:33:55.110Z,19.40
2023-07-20T07:36:22.539Z,20.00
2023-07-20T07:39:27.395Z,20.40
2023-07-20T07:41:37.121Z,20.60
2023-07-20T07:44:04.299Z,20.70
2023-07-20T07:46:31.669Z,20.50
2023-07-20T07:48:58.820Z,20.50
2023-07-20T07:51:26.112Z,20.60
2023-07-20T07:53:53.415Z,21.00
2023-07-20T07:56:24.795Z,21.40
2023-07-20T07:58:53.208Z,20.70
2023-07-20T08:01:20.520Z,20.70
2023-07-20T08:03:48.615Z,20.60
2023-07-20T08:06:16.118Z,20.70
2023-07-20T08:08:46.246Z,20.30
2023-07-20T08:11:15.623Z,20.20
2023-07-20T08:13:42.993Z,20.60
2023-07-20T08:16:10.109Z,20.40
2023-07-20T08:18:37.652Z,21.00
2023-07-20T08:21:04.890Z,20.80
2023-07-20T08:23:31.899Z,21.00
2023-07-20T08:25:59.121Z,21.30
2023-07-20T08:28:28.055Z,20.90
2023-07-20T08:30:55.440Z,20.80
2023-07-20T08:33:22.653Z,20.60
2023-07-20T08:35:50.301Z,21.20
2023-07-20T08:38:17.786Z,21.20
2023-07-20T08:40:48.517Z,21.10
2023-07-20T08:43:20.106Z,20.80
2023-07-20T08:45:49.544Z,21.00
2023-07-20T08:48:18.227Z,20.40
2023-07-20T08:50:46.961Z,20.50
2023-07-20T08:53:15.554Z,20.70
2023-07-20T08:55:46.187Z,20.50
2023-07-20T08:58:16.089Z,21.10
2023-07-20T09:00:46.374Z,21.20
2023-07-20T09:03:16.176Z,21.20
2023-07-20T09:05:43.752Z,21.10
2023-07-20T09:08:10.767Z,21.90
2023-07-20T09:10:37.928Z,21.40
2023-07-20T09:13:05.087Z,21.80
2023-07-20T09:15:32.289Z,21.50
2023-07-20T09:18:04.636Z,21.60
2023-07-20T09:20:34.780Z,22.40
2023-07-20T09:25:34.610Z,21.80
2023-07-20T09:28:05.865Z,22.40
2023-07-20T09:30:33.931Z,22.30
2023-07-20T09:33:01.929Z,22.10
2023-07-20T09:35:35.783Z,22.10
2023-07-20T09:50:52.435Z,22.00
2023-07-20T09:53:21.080Z,21.90
2023-07-20T09:55:49.225Z,22.00
2023-07-20T09:58:17.499Z,22.30
2023-07-20T10:03:21.760Z,21.90
2023-07-20T10:06:08.441Z,22.40
2023-07-20T10:11:17.353Z,22.20
2023-07-20T10:13:46.692Z,21.80
2023-07-20T10:16:25.207Z,21.30
2023-07-20T10:21:56.689Z,22.30
2023-07-20T10:24:27.476Z,22.30
2023-07-20T10:26:56.878Z,22.10
2023-07-20T10:29:30.543Z,22.30
2023-07-20T10:31:59.064Z,22.40
2023-07-20T10:34:26.599Z,22.10
2023-07-20T10:36:55.653Z,22.10
2023-07-20T10:39:32.183Z,22.30
2023-07-20T10:42:09.576Z,22.40
2023-07-20T10:44:43.554Z,23.00
2023-07-20T10:47:13.592Z,23.20
2023-07-20T10:50:03.955Z,23.40
2023-07-20T10:52:43.855Z,23.00
2023-07-20T10:55:18.738Z,22.70
2023-07-20T10:58:15.839Z,23.00
2023-07-20T11:01:04.448Z,22.50
2023-07-20T11:03:37.781Z,22.90
2023-07-20T11:06:26.698Z,22.70
2023-07-20T11:09:16.477Z,22.70
2023-07-20T11:11:50.478Z,22.40
2023-07-20T11:14:26.289Z,22.40
2023-07-20T11:16:54.571Z,22.80
2023-07-20T11:22:03.986Z,23.40
2023-07-20T11:24:33.147Z,23.20
2023-07-20T11:27:01.415Z,23.70
2023-07-20T11:29:33.246Z,23.50
2023-07-20T11:32:05.602Z,23.50
2023-07-20T11:34:34.612Z,23.40
2023-07-20T11:39:32.500Z,23.30
2023-07-20T11:41:59.857Z,24.00
2023-07-20T11:44:31.133Z,24.10
2023-07-20T11:47:09.512Z,23.80
2023-07-20T11:49:43.183Z,24.40
2023-07-20T11:52:12.990Z,24.00
2023-07-20T11:54:43.776Z,24.00
2023-07-20T11:57:22.698Z,23.90
2023-07-20T11:59:59.037Z,23.60
2023-07-20T12:02:29.246Z,23.10
2023-07-20T12:04:59.509Z,23.50
2023-07-20T12:07:30.919Z,23.80
2023-07-20T12:10:06.586Z,23.60
2023-07-20T12:12:44.500Z,23.20
2023-07-20T12:15:23.203Z,23.40
2023-07-20T12:17:58.318Z,23.40
2023-07-20T12:20:31.012Z,23.40
2023-07-20T12:23:04.202Z,23.30
2023-07-20T12:25:41.796Z,23.20
2023-07-20T12:28:15.104Z,22.90
2023-07-20T12:30:44.138Z,22.90
2023-07-20T12:33:11.488Z,23.00
2023-07-20T12:35:38.961Z,22.70
2023-07-20T12:38:07.419Z,22.80
2023-07-20T12:40:35.574Z,22.70
2023-07-20T12:43:02.929Z,23.10
2023-07-20T12:45:30.000Z,22.60
2023-07-20T12:47:57.124Z,23.10
2023-07-20T12:50:24.234Z,23.70
2023-07-20T12:52:51.451Z,23.40
2023-07-20T12:55:18.915Z,23.50
2023-07-20T12:57:48.002Z,23.10
2023-07-20T13:00:16.488Z,22.90
2023-07-20T13:02:44.865Z,23.10
2023-07-20T13:05:11.981Z,22.90
2023-07-20T13:10:13.686Z,22.70
2023-07-20T13:12:40.824Z,22.90
2023-07-20T13:15:09.476Z,22.50
2023-07-20T13:17:38.497Z,22.30
2023-07-20T13:20:11.445Z,22.30
2023-07-20T13:22:39.594Z,22.30
2023-07-20T13:25:07.650Z,22.30
2023-07-20T13:27:35.337Z,22.10
2023-07-20T13:30:09.846Z,22.40
2023-07-20T13:32:37.885Z,22.50
2023-07-20T13:35:06.097Z,22.30
2023-07-20T13:37:33.133Z,22.20
2023-07-20T13:40:00.216Z,22.00
2023-07-20T13:42:27.356Z,22.20
2023-07-20T13:44:54.859Z,22.30
2023-07-20T13:47:23.856Z,22.30
2023-07-20T13:55:06.081Z,22.30
2023-07-20T13:57:35.360Z,22.30
2023-07-20T14:00:05.341Z,22.50
2023-07-20T14:07:33.935Z,22.20
2023-07-20T14:12:31.233Z,22.60
2023-07-20T14:14:58.451Z,22.50
2023-07-20T14:17:26.772Z,22.60
2023-07-20T14:19:54.901Z,22.40
2023-07-20T14:22:22.542Z,22.30
2023-07-20T14:24:49.688Z,22.40
2023-07-20T14:27:16.829Z,22.40
2023-07-20T14:29:44.497Z,22.30
2023-07-20T14:32:11.953Z,22.30
2023-07-20T14:34:39.987Z,22.40
2023-07-20T14:37:07.754Z,22.40
2023-07-20T14:39:36.875Z,22.10
2023-07-20T14:42:05.217Z,22.10
2023-07-20T14:44:34.279Z,21.90
2023-07-20T14:47:13.471Z,21.90
2023-07-20T14:49:41.234Z,22.00
2023-07-20T14:54:38.616Z,21.90
2023-07-20T14:57:06.183Z,22.00
2023-07-20T14:59:33.290Z,22.00
2023-07-20T15:02:00.489Z,22.10
2023-07-20T15:04:28.954Z,22.10
2023-07-20T15:06:57.485Z,22.10
2023-07-20T15:09:25.035Z,22.00
2023-07-20T15:11:52.060Z,22.00
2023-07-20T15:14:19.134Z,21.90
2023-07-20T15:16:48.308Z,21.90
2023-07-20T15:19:17.824Z,21.50
2023-07-20T15:21:45.304Z,21.50
2023-07-20T15:24:14.955Z,21.60
2023-07-20T15:26:42.539Z,21.50
2023-07-20T15:29:35.945Z,21.60
2023-07-20T15:34:28.893Z,21.70
2023-07-20T15:36:56.376Z,21.50
2023-07-20T15:39:25.973Z,21.30
2023-07-20T15:41:53.330Z,21.10
2023-07-20T15:44:21.078Z,21.20
2023-07-20T15:46:50.570Z,20.90
2023-07-20T15:49:18.371Z,20.90
2023-07-20T15:51:47.861Z,20.70
2023-07-20T15:54:16.977Z,20.50
2023-07-20T15:56:45.708Z,20.40
2023-07-20T15:59:14.868Z,20.30
2023-07-20T16:01:44.388Z,20.00
2023-07-20T16:04:15.858Z,20.10
2023-07-20T16:06:43.526Z,20.10
2023-07-20T16:09:10.689Z,19.90
2023-07-20T16:11:38.559Z,20.00
2023-07-20T16:14:08.038Z,20.10
2023-07-20T16:16:38.322Z,20.20
2023-07-20T16:19:05.704Z,20.20
2023-07-20T16:21:33.668Z,20.20
2023-07-20T16:24:01.338Z,20.10
2023-07-20T16:26:28.571Z,20.40
2023-07-20T16:31:26.262Z,20.50
2023-07-20T16:34:06.021Z,20.60
2023-07-20T16:36:57.004Z,20.70
2023-07-20T16:44:22.645Z,20.30
2023-07-20T16:49:23.041Z,20.10
2023-07-20T16:51:50.239Z,20.10
2023-07-20T16:54:18.164Z,20.20
2023-07-20T16:56:45.333Z,20.20
2023-07-20T16:59:12.534Z,20.40
2023-07-20T17:01:41.045Z,20.40
2023-07-20T17:04:08.705Z,20.40
2023-07-20T17:06:36.343Z,20.00
2023-07-20T17:09:03.826Z,20.00
2023-07-20T17:11:32.914Z,20.00
2023-07-20T17:14:00.135Z,20.10
2023-07-20T17:16:27.359Z,20.20
2023-07-20T17:18:54.640Z,20.70
2023-07-20T17:21:22.853Z,21.40
2023-07-20T17:28:55.031Z,22.10
2023-07-20T17:31:29.925Z,22.50
2023-07-20T17:33:57.488Z,22.00
2023-07-20T17:38:54.959Z,22.00
2023-07-20T17:41:23.375Z,22.20
2023-07-20T17:43:50.751Z,21.80
2023-07-20T17:48:48.248Z,21.40
2023-07-20T17:51:16.615Z,21.40
2023-07-20T17:53:43.774Z,21.20
2023-07-20T17:56:10.837Z,20.60
2023-07-20T17:58:38.199Z,20.50
2023-07-20T18:01:05.472Z,20.70
2023-07-20T18:03:32.828Z,20.50
2023-07-20T18:06:08.369Z,20.60
2023-07-20T18:08:39.199Z,20.70
2023-07-20T18:11:08.034Z,20.70
2023-07-20T18:13:35.248Z,20.90
2023-07-20T18:16:03.013Z,20.90
2023-07-20T18:18:30.911Z,20.80
2023-07-20T18:20:58.094Z,20.70
2023-07-20T18:23:25.243Z,20.50
2023-07-20T18:25:52.417Z,20.40
2023-07-20T18:28:19.664Z,20.10
2023-07-20T18:30:47.171Z,20.10
2023-07-20T18:33:14.536Z,19.90
2023-07-20T18:35:42.611Z,20.00
2023-07-20T18:38:10.783Z,20.00
2023-07-20T18:40:37.944Z,20.00
2023-07-20T18:43:05.107Z,20.10
2023-07-20T18:45:32.502Z,20.00
2023-07-20T18:48:00.046Z,20.00
2023-07-20T18:50:27.416Z,20.10
2023-07-20T18:52:54.720Z,20.00
2023-07-20T18:55:21.787Z,19.90
2023-07-20T18:57:48.992Z,20.00
2023-07-20T19:00:18.697Z,20.20
2023-07-20T19:02:46.631Z,20.20
2023-07-20T19:05:14.396Z,20.00
2023-07-20T19:07:41.738Z,20.00
2023-07-20T19:10:11.081Z,20.10
2023-07-20T19:12:38.530Z,19.90
2023-07-20T19:15:05.990Z,19.80
2023-07-20T19:17:33.344Z,19.70
2023-07-20T19:20:00.658Z,19.80
2023-07-20T19:22:27.921Z,19.60
2023-07-20T19:24:55.447Z,19.60
2023-07-20T19:27:22.483Z,19.70
2023-07-20T19:29:49.703Z,19.60
2023-07-20T19:32:16.962Z,19.60
2023-07-20T19:34:44.219Z,19.40
2023-07-20T19:37:12.020Z,19.30
2023-07-20T19:39:39.531Z,19.20
2023-07-20T19:42:07.271Z,19.20
2023-07-20T19:44:34.396Z,19.20
2023-07-20T19:47:01.561Z,19.20
2023-07-20T19:49:29.500Z,19.10
2023-07-20T19:51:56.773Z,19.10
2023-07-20T19:56:55.332Z,18.90
2023-07-20T19:59:22.390Z,18.80
2023-07-20T20:01:49.473Z,18.90
2023-07-20T20:06:52.582Z,18.80
2023-07-20T20:09:19.884Z,18.80
2023-07-20T20:11:50.246Z,18.50
2023-07-20T20:14:17.762Z,18.40
2023-07-20T20:16:45.536Z,18.20
2023-07-20T20:19:12.947Z,18.20
2023-07-20T20:21:39.960Z,18.20
2023-07-20T20:24:07.071Z,18.30
2023-07-20T20:26:38.675Z,18.30
2023-07-20T20:29:07.380Z,18.30
2023-07-20T20:31:34.877Z,18.20
2023-07-20T20:34:02.045Z,18.30
2023-07-20T20:36:29.344Z,18.20
2023-07-20T20:38:57.830Z,18.30
2023-07-20T20:41:27.194Z,18.20
2023-07-20T20:43:54.364Z,18.20
2023-07-20T20:46:21.981Z,18.20
2023-07-20T20:48:49.686Z,18.00
2023-07-20T20:51:16.933Z,17.80
2023-07-20T20:53:44.649Z,17.70
2023-07-20T20:56:12.060Z,17.60
2023-07-20T20:58:39.206Z,17.60
2023-07-20T21:01:07.300Z,17.70
2023-07-20T21:03:34.763Z,17.70
2023-07-20T21:06:02.130Z,17.70
2023-07-20T21:08:29.336Z,17.60
2023-07-20T21:10:59.406Z,17.50
2023-07-20T21:13:27.110Z,17.50
2023-07-20T21:15:54.525Z,17.50
2023-07-20T21:18:22.471Z,17.50
2023-07-20T21:20:49.930Z,17.60
2023-07-20T21:23:18.096Z,17.50
2023-07-20T21:25:46.849Z,17.60
2023-07-20T21:28:14.421Z,17.60
2023-07-20T21:30:45.505Z,17.60
2023-07-20T21:33:15.379Z,17.50
2023-07-20T21:35:42.990Z,17.50
2023-07-20T21:38:10.400Z,17.40
2023-07-20T21:40:39.842Z,17.40
2023-07-20T21:43:06.895Z,17.40
2023-07-20T21:45:34.202Z,17.40
2023-07-20T21:48:01.325Z,17.30
2023-07-20T21:50:28.511Z,17.30
2023-07-20T21:52:56.043Z,17.30
2023-07-20T21:55:23.494Z,17.30
2023-07-20T21:57:51.265Z,17.30
2023-07-20T22:00:20.362Z,17.30
2023-07-20T22:02:47.737Z,17.30
2023-07-20T22:05:15.930Z,17.20
2023-07-20T22:07:43.395Z,17.30
2023-07-20T22:10:10.745Z,17.30
2023-07-20T22:12:38.468Z,17.30
2023-07-20T22:15:10.297Z,17.20
2023-07-20T22:17:38.538Z,17.20
2023-07-20T22:20:06.803Z,17.20
2023-07-20T22:22:35.283Z,17.10
2023-07-20T22:25:02.558Z,17.10
2023-07-20T22:27:29.767Z,17.00
2023-07-20T22:29:56.925Z,17.00
2023-07-20T22:32:23.948Z,17.00
2023-07-20T22:34:51.356Z,16.80
2023-07-20T22:37:19.133Z,16.80
2023-07-20T22:39:47.002Z,16.80
2023-07-20T22:42:13.973Z,16.90
2023-07-20T22:44:41.130Z,16.90
2023-07-20T22:47:08.434Z,16.90
2023-07-20T22:49:36.798Z,16.90
2023-07-20T22:52:04.489Z,16.90
2023-07-20T22:54:32.905Z,16.90
2023-07-20T22:57:00.027Z,16.90
2023-07-20T22:59:27.406Z,16.90
2023-07-20T23:01:54.600Z,16.80
2023-07-20T23:04:22.449Z,16.90
2023-07-20T23:06:49.971Z,16.90
2023-07-20T23:09:17.365Z,16.80
2023-07-20T23:11:44.402Z,16.80
2023-07-20T23:14:11.857Z,16.80
2023-07-20T23:16:39.404Z,16.70
2023-07-20T23:19:06.379Z,16.70
2023-07-20T23:21:33.880Z,16.70
2023-07-20T23:24:01.037Z,16.70
2023-07-20T23:26:28.443Z,16.60
2023-07-20T23:28:55.934Z,16.50
2023-07-20T23:31:27.375Z,16.60
2023-07-20T23:33:54.792Z,16.50
2023-07-20T23:36:27.520Z,16.50
2023-07-20T23:38:56.175Z,16.50
2023-07-20T23:41:26.023Z,16.60
2023-07-20T23:43:58.865Z,16.60
2023-07-20T23:46:29.482Z,16.60
2023-07-20T23:48:56.977Z,16.60
2023-07-20T23:51:24.515Z,16.70
2023-07-20T23:53:56.730Z,16.50
2023-07-20T23:56:25.016Z,16.60
2023-07-20T23:58:52.447Z,16.60
